CYKF

Waterloo Airport

Kitchener, Ontario, Canada
METAR CYKF 212200Z AUTO 33008KT 290V350 9SM CLR 11/M06 A3039 RMK SLP302
Observed Flight Rules
Apr-21 @ 22:00 UTC (56 minutes ago) Visual Flight Rules
Wind Visibility Clouds
330° at 8 knots 9 miles
  • Clear skies
Temperatures Readings
Current 11°C / 52°F
Dewpoint -6°C / 21°F
Humidity 30%
Altimeter 30.39" Hg
Pressure 1030.2 hPa
Elevation 317
METAR CYKF 212200Z AUTO 33008KT 290V350 9SM CLR 11/M06 A3039 RMK SLP302
Observed Flight Rules
Apr-21 @ 22:00 UTC
(56 minutes ago)
VFR
Wind Visibility
330° at 8 knots 9 miles
Clouds
  • Clear skies
Temperature Dewpoint
11°C / 52°F -6°C / 21°F
Humidity Altimeter Pressure
30% 30.39" Hg 1030.2 hPa